createdAt,value
2022-08-09T00:01:42.840Z,99691.02
2022-08-09T00:04:33.957Z,99686.70
2022-08-09T00:07:07.762Z,99691.40
2022-08-09T00:09:39.350Z,99695.68
2022-08-09T00:12:07.940Z,99688.63
2022-08-09T00:14:38.541Z,99696.34
2022-08-09T00:17:07.431Z,99692.45
2022-08-09T00:19:36.168Z,99686.95
2022-08-09T00:22:04.284Z,99692.69
2022-08-09T00:24:34.173Z,99695.60
2022-08-09T00:27:02.531Z,99693.17
2022-08-09T00:30:23.397Z,99701.22
2022-08-09T00:32:26.723Z,99693.95
2022-08-09T00:34:56.560Z,99697.06
2022-08-09T00:37:27.042Z,99697.95
2022-08-09T00:40:13.363Z,99704.24
2022-08-09T00:44:24.949Z,99699.40
2022-08-09T00:45:34.763Z,99699.08
2022-08-09T00:48:05.586Z,99698.07
2022-08-09T00:50:35.214Z,99701.13
2022-08-09T00:53:10.181Z,99707.80
2022-08-09T00:56:05.258Z,99708.58
2022-08-09T00:58:27.913Z,99715.55
2022-08-09T01:00:58.986Z,99714.02
2022-08-09T01:03:36.487Z,99709.88
2022-08-09T01:06:21.746Z,99708.31
2022-08-09T01:09:16.882Z,99700.77
2022-08-09T01:11:55.993Z,99703.89
2022-08-09T01:14:41.183Z,99700.70
2022-08-09T01:17:19.281Z,99697.45
2022-08-09T01:20:02.865Z,99696.52
2022-08-09T01:23:12.456Z,99692.14
2022-08-09T01:26:22.035Z,99688.73
2022-08-09T01:28:55.123Z,99694.98
2022-08-09T01:32:29.783Z,99692.55
2022-08-09T01:34:18.336Z,99691.70
2022-08-09T01:36:49.123Z,99689.85
2022-08-09T01:39:17.706Z,99692.41
2022-08-09T01:41:53.707Z,99693.61
2022-08-09T01:44:29.967Z,99697.19
2022-08-09T01:47:01.047Z,99690.06
2022-08-09T01:49:39.041Z,99693.86
2022-08-09T01:52:12.536Z,99701.69
2022-08-09T01:54:48.499Z,99702.60
2022-08-09T01:57:20.658Z,99700.56
2022-08-09T01:59:52.993Z,99700.58
2022-08-09T02:02:30.090Z,99697.98
2022-08-09T02:05:11.812Z,99690.89
2022-08-09T02:08:40.365Z,99696.08
2022-08-09T02:10:51.131Z,99703.25
2022-08-09T02:13:25.869Z,99688.59
2022-08-09T02:16:06.862Z,99692.45
2022-08-09T02:18:38.398Z,99689.19
2022-08-09T02:21:21.790Z,99686.73
2022-08-09T02:23:54.791Z,99682.34
2022-08-09T02:26:28.264Z,99685.48
2022-08-09T02:29:11.185Z,99685.43
2022-08-09T02:31:43.579Z,99679.85
2022-08-09T02:34:38.680Z,99679.63
2022-08-09T02:37:07.882Z,99686.20
2022-08-09T02:39:49.653Z,99691.20
2022-08-09T02:42:28.050Z,99691.88
2022-08-09T02:45:02.001Z,99688.83
2022-08-09T02:47:39.656Z,99687.42
2022-08-09T02:50:24.440Z,99689.86
2022-08-09T02:53:00.239Z,99690.42
2022-08-09T02:55:53.775Z,99690.91
2022-08-09T02:58:36.971Z,99691.99
2022-08-09T03:01:11.312Z,99694.12
2022-08-09T03:04:18.425Z,99695.55
2022-08-09T03:06:34.003Z,99694.63
2022-08-09T03:09:05.119Z,99699.42
2022-08-09T03:12:10.652Z,99700.06
2022-08-09T03:14:28.329Z,99702.06
2022-08-09T03:16:58.448Z,99702.08
2022-08-09T03:19:58.503Z,99701.40
2022-08-09T03:22:19.734Z,99705.14
2022-08-09T03:25:05.785Z,99701.61
2022-08-09T03:27:45.904Z,99709.19
2022-08-09T03:30:29.482Z,99704.48
2022-08-09T03:33:12.864Z,99700.81
2022-08-09T03:36:12.431Z,99703.38
2022-08-09T03:38:43.141Z,99705.20
2022-08-09T03:41:16.690Z,99702.29
2022-08-09T03:44:02.882Z,99706.73
2022-08-09T03:46:36.625Z,99706.71
2022-08-09T03:49:07.937Z,99707.70
2022-08-09T03:51:56.961Z,99702.48
2022-08-09T03:54:32.239Z,99704.97
2022-08-09T03:57:04.390Z,99703.15
2022-08-09T03:59:54.227Z,99709.20
2022-08-09T04:02:27.321Z,99712.98
2022-08-09T04:05:05.854Z,99712.38
2022-08-09T04:07:52.357Z,99709.38
2022-08-09T04:10:29.133Z,99708.28
2022-08-09T04:13:01.270Z,99711.90
2022-08-09T04:15:52.103Z,99718.45
2022-08-09T04:18:21.900Z,99716.98
2022-08-09T04:20:51.502Z,99719.63
2022-08-09T04:23:23.169Z,99721.25
2022-08-09T04:25:53.626Z,99727.75
2022-08-09T04:28:33.163Z,99727.42
2022-08-09T04:31:08.140Z,99726.71
2022-08-09T04:33:47.299Z,99725.48
2022-08-09T04:36:24.465Z,99723.23
2022-08-09T04:38:53.697Z,99720.84
2022-08-09T04:41:23.797Z,99721.44
2022-08-09T04:44:04.892Z,99724.09
2022-08-09T04:46:37.775Z,99722.63
2022-08-09T04:49:30.137Z,99727.02
2022-08-09T04:52:09.721Z,99727.11
2022-08-09T04:54:37.613Z,99723.40
2022-08-09T04:57:05.447Z,99728.02
2022-08-09T04:59:37.964Z,99724.41
2022-08-09T05:02:05.744Z,99728.05
2022-08-09T05:04:34.267Z,99720.48
2022-08-09T05:07:02.122Z,99723.60
2022-08-09T05:09:41.898Z,99729.39
2022-08-09T05:12:12.600Z,99726.44
2022-08-09T05:14:41.311Z,99730.45
2022-08-09T05:17:15.441Z,99732.42
2022-08-09T05:19:58.205Z,99740.29
2022-08-09T05:22:36.016Z,99748.23
2022-08-09T05:25:15.206Z,99748.80
2022-08-09T05:27:45.555Z,99751.14
2022-08-09T05:30:17.836Z,99749.21
2022-08-09T05:32:50.857Z,99751.80
2022-08-09T05:35:21.988Z,99757.16
2022-08-09T05:37:51.137Z,99758.35
2022-08-09T05:40:19.004Z,99756.23
2022-08-09T05:42:47.582Z,99757.77
2022-08-09T05:45:16.167Z,99757.80
2022-08-09T05:47:51.806Z,99759.92
2022-08-09T05:50:36.135Z,99761.90
2022-08-09T05:53:21.657Z,99762.39
2022-08-09T05:55:59.749Z,99761.13
2022-08-09T05:58:29.333Z,99764.88
2022-08-09T06:00:58.242Z,99766.45
2022-08-09T06:03:34.794Z,99768.92
2022-08-09T06:06:12.009Z,99769.13
2022-08-09T06:08:41.046Z,99774.02
2022-08-09T06:11:16.479Z,99766.34
2022-08-09T06:13:47.411Z,99764.30
2022-08-09T06:16:16.318Z,99770.69
2022-08-09T06:18:44.891Z,99763.29
2022-08-09T06:21:12.677Z,99767.79
2022-08-09T06:23:58.917Z,99772.34
2022-08-09T06:26:30.212Z,99775.10
2022-08-09T06:29:04.699Z,99775.77
2022-08-09T06:31:39.288Z,99782.73
2022-08-09T06:34:26.284Z,99779.70
2022-08-09T06:36:59.853Z,99779.17
2022-08-09T06:39:48.759Z,99780.33
2022-08-09T06:42:24.886Z,99788.55
2022-08-09T06:44:57.504Z,99782.59
2022-08-09T06:47:30.000Z,99781.31
2022-08-09T06:50:14.155Z,99781.20
2022-08-09T06:52:48.536Z,99777.15
2022-08-09T06:55:23.370Z,99782.41
2022-08-09T06:58:03.469Z,99777.88
2022-08-09T07:00:54.214Z,99783.71
2022-08-09T07:03:28.267Z,99787.69
2022-08-09T07:06:03.654Z,99791.20
2022-08-09T07:08:34.664Z,99785.13
2022-08-09T07:11:04.300Z,99791.11
2022-08-09T07:13:45.315Z,99786.45
2022-08-09T07:16:41.166Z,99787.30
2022-08-09T07:19:15.630Z,99781.90
2022-08-09T07:21:55.890Z,99788.35
2022-08-09T07:24:32.466Z,99788.67
2022-08-09T07:27:27.282Z,99790.23
2022-08-09T07:30:00.250Z,99798.27
2022-08-09T07:32:33.301Z,99800.57
2022-08-09T07:35:10.459Z,99800.69
2022-08-09T07:37:44.113Z,99809.02
2022-08-09T07:40:17.041Z,99804.36
2022-08-09T07:42:57.133Z,99812.25
2022-08-09T07:45:37.926Z,99806.92
2022-08-09T07:48:28.917Z,99810.60
2022-08-09T07:51:09.657Z,99813.11
2022-08-09T07:54:06.855Z,99811.31
2022-08-09T07:56:44.726Z,99813.16
2022-08-09T07:59:33.765Z,99814.67
2022-08-09T08:02:06.724Z,99819.96
2022-08-09T08:04:37.220Z,99816.75
2022-08-09T08:07:09.321Z,99822.16
2022-08-09T08:09:51.660Z,99820.05
2022-08-09T08:12:28.131Z,99823.70
2022-08-09T08:14:57.715Z,99827.45
2022-08-09T08:17:52.080Z,99827.10
2022-08-09T08:20:15.076Z,99831.08
2022-08-09T08:22:42.922Z,99832.77
2022-08-09T08:25:13.538Z,99836.65
2022-08-09T08:27:43.174Z,99837.05
2022-08-09T08:30:13.836Z,99835.80
2022-08-09T08:32:53.538Z,99827.54
2022-08-09T08:35:22.819Z,99841.41
2022-08-09T08:37:59.503Z,99838.04
2022-08-09T08:40:29.707Z,99842.77
2022-08-09T08:42:58.729Z,99836.02
2022-08-09T08:45:37.076Z,99836.27
2022-08-09T08:48:06.263Z,99836.91
2022-08-09T08:50:38.402Z,99832.88
2022-08-09T08:53:11.867Z,99834.39
2022-08-09T08:55:44.003Z,99829.70
2022-08-09T08:58:12.049Z,99827.08
2022-08-09T09:00:42.820Z,99823.36
2022-08-09T09:03:25.171Z,99821.36
2022-08-09T09:06:05.824Z,99823.30
2022-08-09T09:08:38.117Z,99821.67
2022-08-09T09:11:17.796Z,99821.58
2022-08-09T09:13:57.406Z,99814.30
2022-08-09T09:16:33.841Z,99812.92
2022-08-09T09:19:39.356Z,99810.11
2022-08-09T09:22:03.741Z,99815.36
2022-08-09T09:24:38.902Z,99807.69
2022-08-09T09:27:47.235Z,99801.89
2022-08-09T09:30:14.091Z,99809.66
2022-08-09T09:33:02.728Z,99800.81
2022-08-09T09:36:02.488Z,99803.90
2022-08-09T09:38:49.348Z,99808.52
2022-08-09T09:41:33.066Z,99814.36
2022-08-09T09:44:10.833Z,99810.77
2022-08-09T09:46:50.743Z,99805.92
2022-08-09T09:49:23.495Z,99806.56
2022-08-09T09:52:16.664Z,99806.63
2022-08-09T09:55:16.379Z,99801.91
2022-08-09T09:58:03.081Z,99802.85
2022-08-09T10:00:33.614Z,99801.71
2022-08-09T10:03:11.450Z,99801.46
2022-08-09T10:06:03.290Z,99791.34
2022-08-09T10:08:32.491Z,99793.75
2022-08-09T10:11:59.376Z,99794.75
2022-08-09T10:14:05.188Z,99798.10
2022-08-09T10:16:58.171Z,99800.54
2022-08-09T10:19:37.402Z,99796.08
2022-08-09T10:22:05.911Z,99795.81
2022-08-09T10:24:36.083Z,99795.86
2022-08-09T10:27:05.411Z,99796.45
2022-08-09T10:30:57.867Z,99794.33
2022-08-09T10:32:40.309Z,99797.63
2022-08-09T10:35:10.943Z,99797.73
2022-08-09T10:37:44.025Z,99792.06
2022-08-09T10:40:34.995Z,99786.64
2022-08-09T10:43:02.181Z,99795.98
2022-08-09T10:45:35.406Z,99799.38
2022-08-09T10:48:33.838Z,99798.32
2022-08-09T10:51:45.899Z,99798.73
2022-08-09T10:54:25.481Z,99797.34
2022-08-09T10:57:09.858Z,99803.59
2022-08-09T10:59:43.162Z,99802.02
2022-08-09T11:03:14.276Z,99803.48
2022-08-09T11:05:30.136Z,99806.05
2022-08-09T11:08:43.556Z,99798.25
2022-08-09T11:11:17.539Z,99800.71
2022-08-09T11:13:50.660Z,99798.46
2022-08-09T11:16:40.953Z,99802.95
2022-08-09T11:19:11.005Z,99797.70
2022-08-09T11:22:10.276Z,99800.23
2022-08-09T11:25:19.197Z,99800.70
2022-08-09T11:28:04.069Z,99801.15
2022-08-09T11:30:36.393Z,99799.95
2022-08-09T11:33:40.107Z,99797.20
2022-08-09T11:36:08.667Z,99796.66
2022-08-09T11:38:42.630Z,99790.72
2022-08-09T11:41:15.940Z,99784.63
2022-08-09T11:43:49.050Z,99780.11
2022-08-09T11:46:26.638Z,99775.42
2022-08-09T11:49:04.946Z,99771.77
2022-08-09T11:53:00.869Z,99766.04
2022-08-09T11:55:35.114Z,99768.18
2022-08-09T11:58:15.661Z,99771.21
2022-08-09T12:00:55.050Z,99769.23
2022-08-09T12:03:55.472Z,99763.71
2022-08-09T12:06:26.836Z,99761.48
2022-08-09T12:09:06.616Z,99759.94
2022-08-09T12:12:04.050Z,99753.71
2022-08-09T12:14:40.977Z,99754.08
2022-08-09T12:17:34.733Z,99749.85
2022-08-09T12:20:22.235Z,99749.04
2022-08-09T12:22:56.896Z,99747.23
2022-08-09T12:25:36.158Z,99742.58
2022-08-09T12:28:59.247Z,99743.23
2022-08-09T12:31:11.100Z,99732.10
2022-08-09T12:34:00.878Z,99729.31
2022-08-09T12:36:33.877Z,99732.15
2022-08-09T12:39:14.379Z,99733.35
2022-08-09T12:41:42.235Z,99724.30
2022-08-09T12:44:13.032Z,99723.50
2022-08-09T12:46:48.634Z,99717.56
2022-08-09T12:49:20.915Z,99721.75
2022-08-09T12:52:01.048Z,99716.17
2022-08-09T12:55:03.235Z,99715.61
2022-08-09T12:57:39.353Z,99711.04
2022-08-09T13:00:17.597Z,99709.62
2022-08-09T13:02:53.483Z,99703.67
2022-08-09T13:05:25.274Z,99706.48
2022-08-09T13:08:21.257Z,99700.20
2022-08-09T13:11:23.218Z,99700.33
2022-08-09T13:14:38.676Z,99695.06
2022-08-09T13:16:57.715Z,99686.17
2022-08-09T13:20:11.303Z,99686.90
2022-08-09T13:22:45.539Z,99682.69
2022-08-09T13:25:14.496Z,99686.08
2022-08-09T13:27:48.603Z,99682.10
2022-08-09T13:30:49.208Z,99693.70
2022-08-09T13:33:22.778Z,99697.98
2022-08-09T13:36:38.385Z,99697.30
2022-08-09T13:38:57.390Z,99692.44
2022-08-09T13:41:54.740Z,99694.23
2022-08-09T13:44:17.062Z,99694.65
2022-08-09T13:47:29.356Z,99694.70
2022-08-09T13:49:39.799Z,99691.96
2022-08-09T13:52:30.653Z,99689.81
2022-08-09T13:55:04.749Z,99687.75
2022-08-09T13:57:40.716Z,99682.92
2022-08-09T14:00:17.774Z,99683.31
2022-08-09T14:03:04.535Z,99683.29
2022-08-09T14:05:58.951Z,99683.63
2022-08-09T14:08:27.120Z,99682.86
2022-08-09T14:10:56.215Z,99683.39
2022-08-09T14:14:14.682Z,99682.57
2022-08-09T14:16:16.689Z,99682.65
2022-08-09T14:18:49.560Z,99677.73
2022-08-09T14:21:24.076Z,99686.06
2022-08-09T14:23:56.714Z,99684.91
2022-08-09T14:26:32.253Z,99682.27
2022-08-09T14:29:07.964Z,99675.11
2022-08-09T14:31:54.711Z,99675.90
2022-08-09T14:34:31.201Z,99680.71
2022-08-09T14:37:06.667Z,99680.16
2022-08-09T14:39:45.851Z,99678.15
2022-08-09T14:42:30.847Z,99680.65
2022-08-09T14:46:54.806Z,99677.27
2022-08-09T14:47:58.055Z,99676.06
2022-08-09T14:50:30.708Z,99678.63
2022-08-09T14:53:06.203Z,99679.19
2022-08-09T14:55:42.401Z,99679.02
2022-08-09T14:58:19.087Z,99685.04
2022-08-09T15:00:48.115Z,99684.10
2022-08-09T15:03:19.980Z,99685.25
2022-08-09T15:05:52.645Z,99681.00
2022-08-09T15:08:26.016Z,99686.98
2022-08-09T15:11:00.285Z,99684.21
2022-08-09T15:13:48.424Z,99681.98
2022-08-09T15:16:18.182Z,99684.56
2022-08-09T15:18:48.322Z,99683.70
2022-08-09T15:21:54.799Z,99680.73
2022-08-09T15:24:12.544Z,99683.88
2022-08-09T15:26:45.919Z,99684.36
2022-08-09T15:30:48.270Z,99679.90
2022-08-09T15:32:06.395Z,99680.23
2022-08-09T15:34:55.121Z,99687.77
2022-08-09T15:37:37.068Z,99689.77
2022-08-09T15:40:11.817Z,99693.27
2022-08-09T15:42:42.503Z,99694.61
2022-08-09T15:45:12.854Z,99698.27
2022-08-09T15:47:52.832Z,99696.44
2022-08-09T15:50:29.526Z,99696.89
2022-08-09T15:53:07.048Z,99700.22
2022-08-09T15:56:11.094Z,99694.48
2022-08-09T15:58:34.253Z,99691.80
2022-08-09T16:01:02.512Z,99695.52
2022-08-09T16:03:38.745Z,99699.34
2022-08-09T16:06:32.618Z,99696.90
2022-08-09T16:09:01.174Z,99697.88
2022-08-09T16:11:33.115Z,99699.88
2022-08-09T16:14:07.106Z,99702.93
2022-08-09T16:16:38.118Z,99706.85
2022-08-09T16:19:08.383Z,99707.16
2022-08-09T16:21:37.199Z,99710.63
2022-08-09T16:24:08.950Z,99707.00
2022-08-09T16:26:55.396Z,99712.39
2022-08-09T16:29:37.084Z,99711.76
2022-08-09T16:32:17.695Z,99716.95
2022-08-09T16:34:58.015Z,99719.64
2022-08-09T16:37:55.956Z,99715.45
2022-08-09T16:40:20.658Z,99716.27
2022-08-09T16:43:04.820Z,99712.55
2022-08-09T16:45:33.067Z,99713.54
2022-08-09T16:48:38.669Z,99719.42
2022-08-09T16:50:58.827Z,99713.02
2022-08-09T16:53:33.862Z,99716.52
2022-08-09T16:56:09.333Z,99719.02
2022-08-09T16:58:42.598Z,99720.61
2022-08-09T17:01:19.402Z,99719.38
2022-08-09T17:03:52.997Z,99717.73
2022-08-09T17:06:31.631Z,99719.30
2022-08-09T17:09:09.432Z,99721.09
2022-08-09T17:11:51.269Z,99718.39
2022-08-09T17:14:27.161Z,99719.77
2022-08-09T17:17:00.015Z,99727.15
2022-08-09T17:19:47.423Z,99730.42
2022-08-09T17:22:24.116Z,99731.22
2022-08-09T17:25:03.075Z,99732.89
2022-08-09T17:27:33.922Z,99734.76
2022-08-09T17:30:04.636Z,99736.05
2022-08-09T17:32:38.304Z,99736.48
2022-08-09T17:35:12.369Z,99735.58
2022-08-09T17:38:02.576Z,99737.22
2022-08-09T17:40:33.241Z,99737.17
2022-08-09T17:43:32.783Z,99740.77
2022-08-09T17:46:02.802Z,99741.16
2022-08-09T17:48:33.120Z,99740.91
2022-08-09T17:51:09.738Z,99741.42
2022-08-09T17:53:47.978Z,99744.63
2022-08-09T17:56:35.387Z,99748.73
2022-08-09T17:59:11.343Z,99751.57
2022-08-09T18:02:07.739Z,99752.16
2022-08-09T18:04:28.982Z,99748.42
2022-08-09T18:06:57.420Z,99755.48
2022-08-09T18:09:41.019Z,99757.84
2022-08-09T18:12:17.506Z,99763.61
2022-08-09T18:14:55.217Z,99765.24
2022-08-09T18:18:01.607Z,99769.85
2022-08-09T18:20:53.887Z,99768.78
2022-08-09T18:23:05.002Z,99776.70
2022-08-09T18:25:53.061Z,99782.72
2022-08-09T18:30:40.041Z,99786.45
2022-08-09T18:31:12.409Z,99782.33
2022-08-09T18:33:40.629Z,99786.83
2022-08-09T18:36:14.159Z,99789.02
2022-08-09T18:38:57.513Z,99788.04
2022-08-09T18:41:35.105Z,99791.60
2022-08-09T18:44:13.083Z,99791.59
2022-08-09T18:47:04.886Z,99796.30
2022-08-09T18:49:43.690Z,99799.84
2022-08-09T18:52:24.579Z,99795.65
2022-08-09T18:54:56.256Z,99801.00
2022-08-09T18:57:38.637Z,99804.19
2022-08-09T19:00:16.795Z,99807.54
2022-08-09T19:02:51.180Z,99809.05
2022-08-09T19:05:41.284Z,99812.11
2022-08-09T19:08:14.046Z,99812.27
2022-08-09T19:10:48.037Z,99813.35
2022-08-09T19:13:20.235Z,99813.86
2022-08-09T19:15:55.753Z,99820.39
2022-08-09T19:18:33.384Z,99818.94
2022-08-09T19:21:09.818Z,99820.42
2022-08-09T19:24:36.081Z,99822.19
2022-08-09T19:26:34.660Z,99819.67
2022-08-09T19:29:15.364Z,99822.98
2022-08-09T19:31:51.384Z,99817.06
2022-08-09T19:34:23.184Z,99822.73
2022-08-09T19:36:53.633Z,99826.78
2022-08-09T19:39:43.012Z,99823.61
2022-08-09T19:42:15.322Z,99822.75
2022-08-09T19:44:49.499Z,99823.27
2022-08-09T19:47:22.985Z,99821.02
2022-08-09T19:50:09.091Z,99819.27
2022-08-09T19:52:49.361Z,99821.83
2022-08-09T19:55:25.548Z,99822.73
2022-08-09T19:57:59.628Z,99822.87
2022-08-09T20:00:27.597Z,99825.00
2022-08-09T20:04:11.399Z,99823.15
2022-08-09T20:05:46.798Z,99824.45
2022-08-09T20:08:24.990Z,99822.06
2022-08-09T20:11:04.828Z,99821.51
2022-08-09T20:13:37.183Z,99828.52
2022-08-09T20:16:33.755Z,99827.21
2022-08-09T20:19:42.369Z,99824.39
2022-08-09T20:21:55.131Z,99831.32
2022-08-09T20:24:32.095Z,99831.13
2022-08-09T20:27:05.703Z,99827.72
2022-08-09T20:29:38.812Z,99830.84
2022-08-09T20:32:31.301Z,99827.04
2022-08-09T20:35:00.077Z,99825.72
2022-08-09T20:37:37.335Z,99826.61
2022-08-09T20:40:27.014Z,99828.83
2022-08-09T20:43:18.446Z,99833.42
2022-08-09T20:46:00.452Z,99837.73
2022-08-09T20:48:38.342Z,99836.02
2022-08-09T20:51:06.884Z,99837.60
2022-08-09T20:53:36.565Z,99838.47
2022-08-09T20:56:17.315Z,99837.70
2022-08-09T20:58:54.552Z,99836.12
2022-08-09T21:01:34.726Z,99838.47
2022-08-09T21:05:54.618Z,99833.46
2022-08-09T21:07:12.254Z,99832.87
2022-08-09T21:09:45.624Z,99835.21
2022-08-09T21:14:50.205Z,99832.75
2022-08-09T21:18:11.236Z,99842.17
2022-08-09T21:20:22.535Z,99842.41
2022-08-09T21:22:54.885Z,99839.18
2022-08-09T21:25:43.945Z,99836.40
2022-08-09T21:28:34.787Z,99837.55
2022-08-09T21:31:17.444Z,99838.94
2022-08-09T21:33:50.811Z,99841.64
2022-08-09T21:36:28.165Z,99840.38
2022-08-09T21:38:59.326Z,99844.59
2022-08-09T21:42:05.884Z,99848.50
2022-08-09T21:44:33.000Z,99842.66
2022-08-09T21:47:05.010Z,99847.44
2022-08-09T21:49:39.430Z,99845.91
2022-08-09T21:52:17.090Z,99847.62
2022-08-09T21:55:03.690Z,99844.75
2022-08-09T21:57:58.732Z,99846.83
2022-08-09T22:00:32.453Z,99843.66
2022-08-09T22:03:07.331Z,99839.02
2022-08-09T22:05:42.307Z,99844.17
2022-08-09T22:08:16.376Z,99838.48
2022-08-09T22:11:50.465Z,99832.11
2022-08-09T22:13:35.602Z,99835.50
2022-08-09T22:16:09.063Z,99837.76
2022-08-09T22:18:52.923Z,99836.45
2022-08-09T22:21:27.461Z,99836.96
2022-08-09T22:24:17.111Z,99841.60
2022-08-09T22:26:51.646Z,99840.46
2022-08-09T22:29:26.876Z,99841.02
2022-08-09T22:32:00.469Z,99835.12
2022-08-09T22:34:28.770Z,99837.73
2022-08-09T22:36:58.307Z,99836.71
2022-08-09T22:39:56.305Z,99835.23
2022-08-09T22:42:21.056Z,99837.90
2022-08-09T22:48:06.112Z,99834.73
2022-08-09T22:48:14.810Z,99836.39
2022-08-09T22:50:32.593Z,99837.79
2022-08-09T22:53:03.914Z,99835.46
2022-08-09T22:56:07.157Z,99833.05
2022-08-09T22:58:33.150Z,99836.92
2022-08-09T23:01:05.964Z,99832.40
2022-08-09T23:04:06.041Z,99831.39
2022-08-09T23:06:35.093Z,99828.09
2022-08-09T23:09:06.153Z,99826.84
2022-08-09T23:11:34.149Z,99828.16
2022-08-09T23:14:03.648Z,99830.47
2022-08-09T23:16:34.275Z,99828.96
2022-08-09T23:19:02.333Z,99827.13
2022-08-09T23:21:34.157Z,99822.65
2022-08-09T23:24:06.805Z,99828.40
2022-08-09T23:26:36.589Z,99831.95
2022-08-09T23:29:11.442Z,99832.35
2022-08-09T23:31:40.802Z,99821.85
2022-08-09T23:34:09.594Z,99828.27
2022-08-09T23:36:37.517Z,99821.48
2022-08-09T23:39:07.537Z,99822.75
2022-08-09T23:41:35.674Z,99825.98
2022-08-09T23:44:03.930Z,99821.34
2022-08-09T23:46:32.730Z,99823.28
2022-08-09T23:49:01.109Z,99823.24
2022-08-09T23:51:28.955Z,99823.70
2022-08-09T23:54:03.255Z,99817.69
2022-08-09T23:56:51.999Z,99813.72
2022-08-09T23:59:21.680Z,99810.16
